sensor_id;sensor_type;location;lat;lon;timestamp;pressure;altitude;pressure_sealevel;temperature;humidity
5703;BME280;2876;51.738;10.050;2023-01-25T00:03:30;101287.53;;;0.90;89.44
5703;BME280;2876;51.738;10.050;2023-01-25T00:09:32;101283.03;;;0.92;89.47
5703;BME280;2876;51.738;10.050;2023-01-25T00:15:34;101280.94;;;0.67;89.95
5703;BME280;2876;51.738;10.050;2023-01-25T00:21:37;101280.75;;;0.70;90.08
5703;BME280;2876;51.738;10.050;2023-01-25T00:27:39;101277.88;;;0.59;90.09
5703;BME280;2876;51.738;10.050;2023-01-25T00:33:56;101262.28;;;0.70;89.91
5703;BME280;2876;51.738;10.050;2023-01-25T00:40:01;101257.00;;;0.70;90.16
5703;BME280;2876;51.738;10.050;2023-01-25T00:46:03;101249.97;;;0.55;89.95
5703;BME280;2876;51.738;10.050;2023-01-25T00:52:06;101239.31;;;0.56;90.93
5703;BME280;2876;51.738;10.050;2023-01-25T00:58:09;101240.88;;;0.74;90.57
5703;BME280;2876;51.738;10.050;2023-01-25T01:04:10;101236.31;;;0.62;90.68
5703;BME280;2876;51.738;10.050;2023-01-25T01:10:12;101237.94;;;0.65;90.65
5703;BME280;2876;51.738;10.050;2023-01-25T01:16:14;101238.53;;;0.54;90.63
5703;BME280;2876;51.738;10.050;2023-01-25T01:22:16;101236.00;;;0.53;90.33
5703;BME280;2876;51.738;10.050;2023-01-25T01:28:19;101236.66;;;0.56;90.61
5703;BME280;2876;51.738;10.050;2023-01-25T01:34:21;101239.56;;;0.82;90.54
5703;BME280;2876;51.738;10.050;2023-01-25T01:40:23;101231.50;;;0.55;90.67
5703;BME280;2876;51.738;10.050;2023-01-25T01:46:36;101230.28;;;0.60;91.02
5703;BME280;2876;51.738;10.050;2023-01-25T01:52:39;101226.59;;;0.63;91.08
5703;BME280;2876;51.738;10.050;2023-01-25T01:58:42;101229.00;;;0.82;90.51
5703;BME280;2876;51.738;10.050;2023-01-25T02:04:46;101215.75;;;0.83;90.42
5703;BME280;2876;51.738;10.050;2023-01-25T02:10:49;101220.72;;;0.73;90.73
5703;BME280;2876;51.738;10.050;2023-01-25T02:16:51;101213.16;;;0.82;90.77
5703;BME280;2876;51.738;10.050;2023-01-25T02:29:06;101184.13;;;0.82;90.56
5703;BME280;2876;51.738;10.050;2023-01-25T02:41:39;101172.28;;;1.03;89.97
5703;BME280;2876;51.738;10.050;2023-01-25T02:47:42;101177.53;;;0.89;91.00
5703;BME280;2876;51.738;10.050;2023-01-25T02:53:43;101161.53;;;0.92;90.88
5703;BME280;2876;51.738;10.050;2023-01-25T02:59:46;101145.47;;;0.81;91.31
5703;BME280;2876;51.738;10.050;2023-01-25T03:05:50;101146.84;;;0.72;92.72
5703;BME280;2876;51.738;10.050;2023-01-25T03:11:52;101143.22;;;0.89;93.10
5703;BME280;2876;51.738;10.050;2023-01-25T03:17:55;101131.69;;;0.90;93.37
5703;BME280;2876;51.738;10.050;2023-01-25T03:24:00;101137.19;;;1.01;93.90
5703;BME280;2876;51.738;10.050;2023-01-25T03:30:03;101133.31;;;1.21;94.09
5703;BME280;2876;51.738;10.050;2023-01-25T03:36:06;101129.28;;;1.15;94.63
5703;BME280;2876;51.738;10.050;2023-01-25T03:42:08;101125.56;;;1.04;95.30
5703;BME280;2876;51.738;10.050;2023-01-25T03:48:10;101122.84;;;1.05;96.28
5703;BME280;2876;51.738;10.050;2023-01-25T03:54:12;101119.09;;;1.09;96.05
5703;BME280;2876;51.738;10.050;2023-01-25T04:00:14;101126.13;;;1.09;96.68
5703;BME280;2876;51.738;10.050;2023-01-25T04:06:16;101127.84;;;1.24;96.71
5703;BME280;2876;51.738;10.050;2023-01-25T04:12:18;101113.13;;;1.20;96.62
5703;BME280;2876;51.738;10.050;2023-01-25T04:18:21;101114.94;;;1.05;97.38
5703;BME280;2876;51.738;10.050;2023-01-25T04:24:23;101103.53;;;1.05;97.42
5703;BME280;2876;51.738;10.050;2023-01-25T04:30:25;101090.00;;;1.23;96.97
5703;BME280;2876;51.738;10.050;2023-01-25T04:36:27;101092.09;;;1.18;97.48
5703;BME280;2876;51.738;10.050;2023-01-25T04:42:29;101087.38;;;1.09;97.04
5703;BME280;2876;51.738;10.050;2023-01-25T04:48:31;101088.81;;;1.00;97.29
5703;BME280;2876;51.738;10.050;2023-01-25T04:54:33;101086.06;;;1.02;97.83
5703;BME280;2876;51.738;10.050;2023-01-25T05:00:35;101076.34;;;1.02;98.25
5703;BME280;2876;51.738;10.050;2023-01-25T05:06:37;101072.84;;;1.02;98.10
5703;BME280;2876;51.738;10.050;2023-01-25T05:12:39;101071.97;;;1.16;98.08
5703;BME280;2876;51.738;10.050;2023-01-25T05:18:41;101069.44;;;1.29;97.09
5703;BME280;2876;51.738;10.050;2023-01-25T05:24:49;101062.94;;;1.06;97.95
5703;BME280;2876;51.738;10.050;2023-01-25T05:30:51;101056.53;;;1.10;97.17
5703;BME280;2876;51.738;10.050;2023-01-25T05:36:53;101064.25;;;0.98;98.09
5703;BME280;2876;51.738;10.050;2023-01-25T05:42:57;101057.56;;;0.93;98.05
5703;BME280;2876;51.738;10.050;2023-01-25T05:48:59;101055.66;;;0.95;97.88
5703;BME280;2876;51.738;10.050;2023-01-25T05:55:01;101049.72;;;0.77;97.84
5703;BME280;2876;51.738;10.050;2023-01-25T06:01:05;101045.69;;;0.71;98.30
5703;BME280;2876;51.738;10.050;2023-01-25T06:07:08;101053.53;;;0.87;99.62
5703;BME280;2876;51.738;10.050;2023-01-25T06:13:09;101037.38;;;1.06;98.87
5703;BME280;2876;51.738;10.050;2023-01-25T06:19:12;101036.91;;;1.14;98.13
5703;BME280;2876;51.738;10.050;2023-01-25T06:25:14;101032.75;;;1.10;98.18
5703;BME280;2876;51.738;10.050;2023-01-25T06:31:18;101023.59;;;1.15;99.46
5703;BME280;2876;51.738;10.050;2023-01-25T06:37:20;101031.78;;;1.25;98.84
5703;BME280;2876;51.738;10.050;2023-01-25T06:43:23;101027.91;;;1.16;98.57
5703;BME280;2876;51.738;10.050;2023-01-25T06:49:25;101014.28;;;0.95;98.34
5703;BME280;2876;51.738;10.050;2023-01-25T06:55:27;101017.41;;;0.88;97.47
5703;BME280;2876;51.738;10.050;2023-01-25T07:01:29;101026.25;;;0.58;98.00
5703;BME280;2876;51.738;10.050;2023-01-25T07:07:31;101017.41;;;0.73;98.45
5703;BME280;2876;51.738;10.050;2023-01-25T07:13:33;101009.00;;;0.81;98.04
5703;BME280;2876;51.738;10.050;2023-01-25T07:19:35;101011.75;;;0.65;98.17
5703;BME280;2876;51.738;10.050;2023-01-25T07:25:46;101002.31;;;0.75;98.01
5703;BME280;2876;51.738;10.050;2023-01-25T07:31:49;101002.47;;;0.72;98.13
5703;BME280;2876;51.738;10.050;2023-01-25T07:37:51;101001.00;;;0.83;98.18
5703;BME280;2876;51.738;10.050;2023-01-25T07:43:53;101002.19;;;0.77;98.40
5703;BME280;2876;51.738;10.050;2023-01-25T07:49:55;101000.22;;;0.81;98.30
5703;BME280;2876;51.738;10.050;2023-01-25T07:55:58;101005.50;;;0.81;97.83
5703;BME280;2876;51.738;10.050;2023-01-25T08:02:00;101005.78;;;0.90;98.34
5703;BME280;2876;51.738;10.050;2023-01-25T08:08:01;101011.63;;;0.95;97.44
5703;BME280;2876;51.738;10.050;2023-01-25T08:14:04;101024.28;;;0.76;97.98
5703;BME280;2876;51.738;10.050;2023-01-25T08:20:07;101018.41;;;0.85;98.45
5703;BME280;2876;51.738;10.050;2023-01-25T08:26:12;101007.00;;;0.85;98.55
5703;BME280;2876;51.738;10.050;2023-01-25T08:32:14;101008.13;;;0.95;97.73
5703;BME280;2876;51.738;10.050;2023-01-25T08:38:16;101000.50;;;0.90;97.65
5703;BME280;2876;51.738;10.050;2023-01-25T08:44:18;101004.66;;;0.80;97.86
5703;BME280;2876;51.738;10.050;2023-01-25T08:50:24;100997.28;;;0.99;97.63
5703;BME280;2876;51.738;10.050;2023-01-25T08:56:26;100992.47;;;1.06;97.76
5703;BME280;2876;51.738;10.050;2023-01-25T09:02:28;100984.69;;;1.17;96.65
5703;BME280;2876;51.738;10.050;2023-01-25T09:08:31;100975.72;;;1.20;96.58
5703;BME280;2876;51.738;10.050;2023-01-25T09:14:33;100968.75;;;1.19;97.11
5703;BME280;2876;51.738;10.050;2023-01-25T09:20:37;100979.28;;;1.33;96.78
5703;BME280;2876;51.738;10.050;2023-01-25T09:26:41;100971.03;;;1.11;96.10
5703;BME280;2876;51.738;10.050;2023-01-25T09:32:50;100962.06;;;1.13;95.72
5703;BME280;2876;51.738;10.050;2023-01-25T09:38:54;100964.97;;;1.23;96.20
5703;BME280;2876;51.738;10.050;2023-01-25T09:45:25;100959.63;;;1.37;96.74
5703;BME280;2876;51.738;10.050;2023-01-25T09:58:16;100946.63;;;1.34;95.58
5703;BME280;2876;51.738;10.050;2023-01-25T10:04:34;100947.69;;;1.44;95.41
5703;BME280;2876;51.738;10.050;2023-01-25T10:10:41;100937.13;;;1.44;95.16
5703;BME280;2876;51.738;10.050;2023-01-25T10:17:00;100928.16;;;1.47;94.95
5703;BME280;2876;51.738;10.050;2023-01-25T10:23:45;100911.50;;;1.59;94.74
5703;BME280;2876;51.738;10.050;2023-01-25T10:29:55;100901.44;;;1.77;94.08
5703;BME280;2876;51.738;10.050;2023-01-25T10:36:01;100891.25;;;1.58;93.57
5703;BME280;2876;51.738;10.050;2023-01-25T10:42:08;100884.81;;;1.62;93.16
5703;BME280;2876;51.738;10.050;2023-01-25T10:54:21;100857.31;;;1.52;93.35
5703;BME280;2876;51.738;10.050;2023-01-25T11:00:40;100851.59;;;1.58;93.82
5703;BME280;2876;51.738;10.050;2023-01-25T11:06:47;100829.94;;;1.53;94.28
5703;BME280;2876;51.738;10.050;2023-01-25T11:19:36;100805.38;;;1.89;93.10
5703;BME280;2876;51.738;10.050;2023-01-25T11:25:39;100794.72;;;1.52;93.96
5703;BME280;2876;51.738;10.050;2023-01-25T11:31:44;100793.56;;;1.69;94.17
5703;BME280;2876;51.738;10.050;2023-01-25T12:36:47;100668.59;;;1.55;92.49
5703;BME280;2876;51.738;10.050;2023-01-25T12:42:55;100660.44;;;1.45;92.31
5703;BME280;2876;51.738;10.050;2023-01-25T12:49:06;100640.16;;;1.45;92.63
5703;BME280;2876;51.738;10.050;2023-01-25T12:55:15;100628.94;;;1.55;92.84
5703;BME280;2876;51.738;10.050;2023-01-25T13:33:05;100551.41;;;1.78;91.28
5703;BME280;2876;51.738;10.050;2023-01-25T13:45:28;100546.97;;;1.78;92.26
5703;BME280;2876;51.738;10.050;2023-01-25T13:51:35;100543.91;;;1.48;92.32
5703;BME280;2876;51.738;10.050;2023-01-25T13:57:40;100536.88;;;1.36;92.60
5703;BME280;2876;51.738;10.050;2023-01-25T14:03:51;100527.44;;;1.44;92.82
5703;BME280;2876;51.738;10.050;2023-01-25T14:09:53;100532.53;;;1.35;93.31
5703;BME280;2876;51.738;10.050;2023-01-25T14:15:58;100515.97;;;1.33;92.88
5703;BME280;2876;51.738;10.050;2023-01-25T14:22:25;100508.94;;;1.44;92.46
5703;BME280;2876;51.738;10.050;2023-01-25T14:28:28;100501.09;;;0.82;94.70
5703;BME280;2876;51.738;10.050;2023-01-25T14:34:31;100502.78;;;0.83;94.96
5703;BME280;2876;51.738;10.050;2023-01-25T14:40:33;100500.00;;;0.85;95.88
5703;BME280;2876;51.738;10.050;2023-01-25T14:46:36;100501.50;;;0.89;96.08
5703;BME280;2876;51.738;10.050;2023-01-25T14:52:39;100489.63;;;1.07;95.53
5703;BME280;2876;51.738;10.050;2023-01-25T14:58:41;100473.38;;;1.00;95.64
5703;BME280;2876;51.738;10.050;2023-01-25T15:05:15;100470.75;;;1.24;94.30
5703;BME280;2876;51.738;10.050;2023-01-25T15:11:31;100460.19;;;0.88;95.15
5703;BME280;2876;51.738;10.050;2023-01-25T15:17:47;100460.53;;;0.83;96.32
5703;BME280;2876;51.738;10.050;2023-01-25T15:23:52;100454.75;;;0.65;96.71
5703;BME280;2876;51.738;10.050;2023-01-25T15:29:54;100450.97;;;0.57;95.60
5703;BME280;2876;51.738;10.050;2023-01-25T15:35:57;100438.41;;;0.47;96.09
5703;BME280;2876;51.738;10.050;2023-01-25T15:41:59;100440.09;;;0.48;96.78
5703;BME280;2876;51.738;10.050;2023-01-25T15:48:01;100430.47;;;0.60;96.80
5703;BME280;2876;51.738;10.050;2023-01-25T15:54:03;100419.81;;;0.62;95.92
5703;BME280;2876;51.738;10.050;2023-01-25T16:00:13;100422.44;;;0.62;96.87
5703;BME280;2876;51.738;10.050;2023-01-25T16:06:43;100416.63;;;0.69;96.88
5703;BME280;2876;51.738;10.050;2023-01-25T16:12:45;100414.19;;;0.66;96.84
5703;BME280;2876;51.738;10.050;2023-01-25T16:18:48;100419.09;;;0.60;96.62
5703;BME280;2876;51.738;10.050;2023-01-25T16:24:50;100413.19;;;0.56;96.93
5703;BME280;2876;51.738;10.050;2023-01-25T16:30:52;100402.09;;;0.51;97.79
5703;BME280;2876;51.738;10.050;2023-01-25T16:36:54;100405.78;;;0.61;98.03
5703;BME280;2876;51.738;10.050;2023-01-25T16:42:58;100401.00;;;0.66;97.50
5703;BME280;2876;51.738;10.050;2023-01-25T16:49:00;100387.63;;;0.57;97.88
5703;BME280;2876;51.738;10.050;2023-01-25T16:55:05;100386.81;;;0.43;97.86
5703;BME280;2876;51.738;10.050;2023-01-25T17:01:09;100386.69;;;0.45;98.59
5703;BME280;2876;51.738;10.050;2023-01-25T17:07:12;100384.97;;;0.57;98.64
5703;BME280;2876;51.738;10.050;2023-01-25T17:13:14;100371.41;;;0.50;98.23
5703;BME280;2876;51.738;10.050;2023-01-25T17:19:18;100370.69;;;0.22;99.24
5703;BME280;2876;51.738;10.050;2023-01-25T17:25:21;100356.63;;;0.47;98.73
5703;BME280;2876;51.738;10.050;2023-01-25T17:31:26;100353.69;;;0.27;99.93
5703;BME280;2876;51.738;10.050;2023-01-25T17:37:28;100346.00;;;0.23;99.83
5703;BME280;2876;51.738;10.050;2023-01-25T17:43:31;100343.13;;;0.39;99.11
5703;BME280;2876;51.738;10.050;2023-01-25T17:49:35;100336.38;;;0.35;99.52
5703;BME280;2876;51.738;10.050;2023-01-25T17:55:37;100340.94;;;0.33;99.39
5703;BME280;2876;51.738;10.050;2023-01-25T18:01:39;100334.56;;;0.36;99.42
5703;BME280;2876;51.738;10.050;2023-01-25T18:07:44;100321.50;;;0.34;99.60
5703;BME280;2876;51.738;10.050;2023-01-25T18:13:49;100307.34;;;0.35;100.00
5703;BME280;2876;51.738;10.050;2023-01-25T18:19:51;100305.22;;;0.40;99.43
5703;BME280;2876;51.738;10.050;2023-01-25T18:25:53;100301.44;;;0.32;99.40
5703;BME280;2876;51.738;10.050;2023-01-25T18:31:55;100292.84;;;0.17;99.72
5703;BME280;2876;51.738;10.050;2023-01-25T18:37:57;100282.22;;;0.06;100.00
5703;BME280;2876;51.738;10.050;2023-01-25T18:43:59;100283.09;;;-0.19;100.00
5703;BME280;2876;51.738;10.050;2023-01-25T18:50:01;100276.78;;;-0.42;100.00
5703;BME280;2876;51.738;10.050;2023-01-25T18:56:21;100259.09;;;-0.53;100.00
5703;BME280;2876;51.738;10.050;2023-01-25T19:02:23;100265.91;;;-0.25;100.00
5703;BME280;2876;51.738;10.050;2023-01-25T19:08:26;100249.59;;;-0.17;100.00
5703;BME280;2876;51.738;10.050;2023-01-25T19:14:28;100254.34;;;-0.22;100.00
5703;BME280;2876;51.738;10.050;2023-01-25T19:20:30;100255.38;;;-0.12;100.00
5703;BME280;2876;51.738;10.050;2023-01-25T19:26:32;100260.63;;;0.01;100.00
5703;BME280;2876;51.738;10.050;2023-01-25T19:32:34;100254.09;;;-0.07;100.00
5703;BME280;2876;51.738;10.050;2023-01-25T19:38:38;100247.22;;;-0.09;100.00
5703;BME280;2876;51.738;10.050;2023-01-25T19:44:40;100237.00;;;-0.14;100.00
5703;BME280;2876;51.738;10.050;2023-01-25T19:50:42;100223.13;;;-0.29;100.00
5703;BME280;2876;51.738;10.050;2023-01-25T19:56:47;100217.78;;;-0.40;100.00
5703;BME280;2876;51.738;10.050;2023-01-25T20:02:50;100205.66;;;-0.42;100.00
5703;BME280;2876;51.738;10.050;2023-01-25T20:08:53;100207.38;;;-0.54;100.00
5703;BME280;2876;51.738;10.050;2023-01-25T20:14:55;100209.56;;;-0.35;100.00
5703;BME280;2876;51.738;10.050;2023-01-25T20:21:04;100198.34;;;-0.13;100.00
5703;BME280;2876;51.738;10.050;2023-01-25T20:27:06;100199.75;;;-0.09;100.00
5703;BME280;2876;51.738;10.050;2023-01-25T20:33:08;100202.97;;;-0.17;100.00
5703;BME280;2876;51.738;10.050;2023-01-25T20:39:13;100184.28;;;-0.14;100.00
5703;BME280;2876;51.738;10.050;2023-01-25T20:45:15;100175.31;;;-0.11;100.00
5703;BME280;2876;51.738;10.050;2023-01-25T20:51:17;100169.50;;;-0.04;100.00
5703;BME280;2876;51.738;10.050;2023-01-25T20:57:22;100161.66;;;-0.29;100.00
5703;BME280;2876;51.738;10.050;2023-01-25T21:03:24;100151.19;;;-0.55;100.00
5703;BME280;2876;51.738;10.050;2023-01-25T21:09:29;100155.06;;;-0.47;100.00
5703;BME280;2876;51.738;10.050;2023-01-25T21:15:31;100150.50;;;-0.33;100.00
5703;BME280;2876;51.738;10.050;2023-01-25T21:21:33;100151.16;;;-0.42;100.00
5703;BME280;2876;51.738;10.050;2023-01-25T21:27:35;100153.28;;;-0.47;100.00
5703;BME280;2876;51.738;10.050;2023-01-25T21:33:38;100133.84;;;-0.33;100.00
5703;BME280;2876;51.738;10.050;2023-01-25T21:39:40;100128.06;;;-0.38;100.00
5703;BME280;2876;51.738;10.050;2023-01-25T21:45:43;100123.75;;;-0.39;100.00
5703;BME280;2876;51.738;10.050;2023-01-25T21:52:03;100122.28;;;-0.43;100.00
5703;BME280;2876;51.738;10.050;2023-01-25T21:58:05;100125.22;;;-0.35;100.00
5703;BME280;2876;51.738;10.050;2023-01-25T22:04:08;100104.44;;;-0.27;100.00
5703;BME280;2876;51.738;10.050;2023-01-25T22:10:10;100106.06;;;-0.13;100.00
5703;BME280;2876;51.738;10.050;2023-01-25T22:16:13;100098.25;;;-0.15;100.00
5703;BME280;2876;51.738;10.050;2023-01-25T22:22:15;100107.25;;;-0.17;100.00
5703;BME280;2876;51.738;10.050;2023-01-25T22:28:18;100104.59;;;-0.17;100.00
5703;BME280;2876;51.738;10.050;2023-01-25T22:34:20;100107.75;;;-0.12;100.00
5703;BME280;2876;51.738;10.050;2023-01-25T22:40:22;100107.66;;;-0.23;99.67
5703;BME280;2876;51.738;10.050;2023-01-25T22:46:27;100101.34;;;-0.45;100.00
5703;BME280;2876;51.738;10.050;2023-01-25T22:52:29;100100.88;;;-0.39;100.00
5703;BME280;2876;51.738;10.050;2023-01-25T22:58:33;100098.41;;;-0.53;100.00
5703;BME280;2876;51.738;10.050;2023-01-25T23:04:36;100079.34;;;-0.33;100.00
5703;BME280;2876;51.738;10.050;2023-01-25T23:10:38;100079.88;;;-0.64;98.99
5703;BME280;2876;51.738;10.050;2023-01-25T23:16:41;100072.44;;;-0.83;99.72
5703;BME280;2876;51.738;10.050;2023-01-25T23:22:44;100063.69;;;-0.71;99.81
5703;BME280;2876;51.738;10.050;2023-01-25T23:28:50;100059.56;;;-0.62;99.25
5703;BME280;2876;51.738;10.050;2023-01-25T23:34:53;100051.94;;;-0.54;98.95
5703;BME280;2876;51.738;10.050;2023-01-25T23:41:00;100045.75;;;-0.66;98.34
5703;BME280;2876;51.738;10.050;2023-01-25T23:47:02;100049.75;;;-0.60;97.72
5703;BME280;2876;51.738;10.050;2023-01-25T23:53:04;100044.13;;;-0.56;97.42
5703;BME280;2876;51.738;10.050;2023-01-25T23:59:05;100040.50;;;-0.42;95.20
